createdAt,value
2023-05-23T00:01:43.384Z,11.40
2023-05-23T00:04:10.977Z,11.40
2023-05-23T00:06:38.959Z,11.40
2023-05-23T00:09:06.236Z,11.30
2023-05-23T00:11:33.239Z,11.30
2023-05-23T00:14:01.390Z,11.30
2023-05-23T00:16:28.837Z,11.30
2023-05-23T00:18:57.787Z,11.20
2023-05-23T00:21:25.034Z,11.20
2023-05-23T00:23:51.954Z,11.20
2023-05-23T00:26:18.873Z,11.30
2023-05-23T00:28:45.798Z,11.30
2023-05-23T00:31:12.803Z,11.30
2023-05-23T00:33:39.735Z,11.40
2023-05-23T05:00:43.256Z,9.10
2023-05-23T05:03:12.143Z,9.00
2023-05-23T05:05:39.098Z,8.80
2023-05-23T05:08:06.104Z,8.90
2023-05-23T05:10:33.286Z,8.80
2023-05-23T05:13:00.176Z,8.90
2023-05-23T05:15:27.138Z,8.90
2023-05-23T05:17:54.392Z,9.00
2023-05-23T05:20:21.815Z,9.10
2023-05-23T05:22:57.655Z,9.00
2023-05-23T05:25:25.013Z,9.10
2023-05-23T05:27:52.747Z,9.10
2023-05-23T05:30:20.118Z,9.10
2023-05-23T05:32:47.842Z,9.10
2023-05-23T05:35:14.898Z,9.20
2023-05-23T05:37:41.834Z,9.20
2023-05-23T05:40:10.026Z,9.30
2023-05-23T05:42:36.991Z,9.30
2023-05-23T05:45:04.241Z,9.30
2023-05-23T05:47:31.226Z,9.30
2023-05-23T05:49:58.136Z,9.40
2023-05-23T05:52:25.087Z,9.40
2023-05-23T05:54:52.089Z,9.50
2023-05-23T05:57:18.991Z,9.60
2023-05-23T05:59:46.183Z,9.70
2023-05-23T06:02:13.145Z,9.80
2023-05-23T06:04:40.053Z,9.80
2023-05-23T06:07:07.025Z,9.80
2023-05-23T06:09:33.923Z,9.90
2023-05-23T06:12:01.362Z,10.00
2023-05-23T06:14:28.266Z,10.10
2023-05-23T06:16:55.659Z,10.20
2023-05-23T06:19:22.675Z,10.20
2023-05-23T06:21:50.554Z,10.30
2023-05-23T06:24:17.538Z,10.40
2023-05-23T06:26:44.472Z,10.50
2023-05-23T06:29:11.433Z,10.60
2023-05-23T06:31:38.359Z,10.70
2023-05-23T06:34:05.297Z,10.70
2023-05-23T06:36:32.269Z,10.80
2023-05-23T06:38:59.144Z,10.80
2023-05-23T06:41:26.096Z,10.90
2023-05-23T06:43:53.256Z,11.00
2023-05-23T06:46:20.377Z,11.00
2023-05-23T06:48:47.388Z,11.00
2023-05-23T06:51:14.368Z,11.10
2023-05-23T06:53:41.295Z,11.10
2023-05-23T06:56:08.235Z,11.20
2023-05-23T06:58:35.299Z,11.30
2023-05-23T07:01:02.225Z,11.40
2023-05-23T07:03:29.202Z,11.40
2023-05-23T07:05:56.423Z,11.50
2023-05-23T07:08:23.520Z,11.60
2023-05-23T07:10:50.767Z,11.70
2023-05-23T07:13:17.719Z,11.80
2023-05-23T07:15:44.658Z,11.70
2023-05-23T07:18:11.779Z,11.80
2023-05-23T07:20:38.868Z,11.80
2023-05-23T07:23:05.980Z,11.80
2023-05-23T07:25:32.951Z,11.80
2023-05-23T07:28:00.296Z,11.80
2023-05-23T07:30:27.226Z,11.80
2023-05-23T07:32:55.483Z,11.90
2023-05-23T07:35:26.234Z,12.00
2023-05-23T07:37:53.741Z,12.00
2023-05-23T07:40:21.305Z,12.10
2023-05-23T07:42:48.338Z,12.20
2023-05-23T07:45:15.262Z,12.20
2023-05-23T07:47:42.785Z,12.20
2023-05-23T07:50:09.975Z,12.30
2023-05-23T07:52:36.895Z,12.30
2023-05-23T07:55:04.089Z,12.30
2023-05-23T07:57:31.833Z,12.40
2023-05-23T07:59:58.877Z,12.40
2023-05-23T08:02:25.987Z,12.50
2023-05-23T08:04:53.594Z,12.40
2023-05-23T08:07:21.935Z,12.50
2023-05-23T08:09:48.922Z,12.60
2023-05-23T08:12:15.961Z,12.70
2023-05-23T08:17:16.582Z,12.80
2023-05-23T08:19:44.026Z,12.80
2023-05-23T08:22:10.987Z,12.90
2023-05-23T08:24:37.944Z,12.90
2023-05-23T08:27:05.265Z,12.90
2023-05-23T08:29:32.239Z,13.00
2023-05-23T08:31:59.193Z,13.00
2023-05-23T08:34:26.170Z,13.00
2023-05-23T08:36:53.173Z,13.10
2023-05-23T08:39:20.103Z,13.10
2023-05-23T08:41:47.328Z,13.20
2023-05-23T08:44:14.486Z,13.30
2023-05-23T08:46:46.276Z,13.30
2023-05-23T08:49:17.851Z,13.20
2023-05-23T08:51:45.664Z,13.30
2023-05-23T08:54:15.617Z,13.30
2023-05-23T08:56:44.724Z,13.40
2023-05-23T08:59:13.146Z,13.50
2023-05-23T09:01:41.801Z,13.70
2023-05-23T09:04:09.642Z,13.90
2023-05-23T09:06:36.818Z,14.00
2023-05-23T09:09:04.573Z,14.20
2023-05-23T09:11:36.125Z,14.30
2023-05-23T09:14:05.398Z,14.30
2023-05-23T09:16:35.063Z,14.50
2023-05-23T09:19:12.247Z,14.70
2023-05-23T09:21:45.975Z,15.00
2023-05-23T09:24:13.215Z,14.90
2023-05-23T09:26:40.278Z,14.70
2023-05-23T09:29:07.773Z,14.80
2023-05-23T09:31:35.037Z,14.80
2023-05-23T09:34:02.458Z,14.80
2023-05-23T09:36:33.855Z,15.00
2023-05-23T09:39:08.143Z,15.00
2023-05-23T09:41:35.781Z,14.90
2023-05-23T09:44:08.581Z,14.80
2023-05-23T09:46:38.911Z,14.80
2023-05-23T09:49:18.580Z,14.90
2023-05-23T09:52:00.918Z,15.00
2023-05-23T09:54:27.964Z,15.10
2023-05-23T09:56:57.206Z,15.10
2023-05-23T09:59:28.503Z,15.20
2023-05-23T10:01:57.544Z,15.10
2023-05-23T10:04:27.038Z,15.20
2023-05-23T10:07:00.249Z,15.30
2023-05-23T10:09:33.199Z,15.40
2023-05-23T10:12:12.084Z,15.40
2023-05-23T10:14:44.069Z,15.70
2023-05-23T10:17:28.097Z,15.80
2023-05-23T10:20:02.750Z,16.10
2023-05-23T10:22:29.971Z,16.70
2023-05-23T10:24:57.155Z,17.00
2023-05-23T10:27:24.375Z,17.10
2023-05-23T10:29:52.304Z,17.00
2023-05-23T10:32:19.876Z,16.80
2023-05-23T10:35:01.805Z,16.80
2023-05-23T10:37:46.919Z,17.00
2023-05-23T10:40:55.586Z,16.70
2023-05-23T10:43:40.690Z,17.20
2023-05-23T10:46:12.881Z,17.60
2023-05-23T10:48:44.579Z,18.30
2023-05-23T10:51:14.687Z,18.80
2023-05-23T10:53:44.095Z,18.90
2023-05-23T10:56:19.849Z,19.00
2023-05-23T10:58:46.844Z,18.90
2023-05-23T11:01:18.083Z,18.40
2023-05-23T11:03:49.777Z,18.50
2023-05-23T11:06:33.960Z,18.30
2023-05-23T11:09:20.425Z,18.30
2023-05-23T11:12:05.477Z,18.40
2023-05-23T11:14:33.893Z,18.80
2023-05-23T11:17:15.054Z,18.70
2023-05-23T11:19:59.356Z,18.90
2023-05-23T11:22:32.263Z,19.10
2023-05-23T11:25:00.811Z,19.00
2023-05-23T11:27:38.927Z,18.50
2023-05-23T11:30:13.867Z,18.30
2023-05-23T11:32:42.186Z,18.30
2023-05-23T11:35:11.117Z,18.10
2023-05-23T11:37:41.706Z,18.20
2023-05-23T11:40:34.595Z,18.60
2023-05-23T11:43:06.864Z,18.80
2023-05-23T11:45:35.118Z,19.00
2023-05-23T11:48:12.885Z,19.00
2023-05-23T11:50:54.328Z,18.70
2023-05-23T11:53:25.299Z,18.50
2023-05-23T11:56:00.293Z,18.00
2023-05-23T11:58:33.318Z,18.10
2023-05-23T12:01:05.103Z,18.20
2023-05-23T12:03:32.709Z,18.30
2023-05-23T12:06:00.934Z,18.20
2023-05-23T12:08:28.186Z,18.10
2023-05-23T12:10:59.117Z,17.80
2023-05-23T12:13:29.873Z,17.70
2023-05-23T12:15:58.753Z,17.60
2023-05-23T12:18:29.912Z,17.50
2023-05-23T12:21:04.208Z,17.50
2023-05-23T12:23:33.872Z,16.90
2023-05-23T12:26:10.434Z,16.90
2023-05-23T12:28:43.298Z,16.70
2023-05-23T12:31:10.605Z,16.90
2023-05-23T12:33:42.723Z,16.90
2023-05-23T12:36:09.969Z,16.90
2023-05-23T12:38:41.163Z,17.00
2023-05-23T12:41:20.152Z,17.10
2023-05-23T12:43:52.242Z,16.90
2023-05-23T12:46:20.637Z,17.10
2023-05-23T12:48:47.661Z,17.10
2023-05-23T12:51:15.203Z,16.90
2023-05-23T12:53:42.274Z,16.70
2023-05-23T12:56:09.290Z,16.80
2023-05-23T12:58:36.240Z,16.90
2023-05-23T13:01:03.870Z,17.20
2023-05-23T13:03:31.800Z,17.40
2023-05-23T13:05:59.434Z,17.40
2023-05-23T13:08:30.183Z,17.40
2023-05-23T13:10:57.569Z,17.40
2023-05-23T13:13:24.984Z,17.40
2023-05-23T13:15:52.116Z,17.20
2023-05-23T13:18:19.261Z,17.20
2023-05-23T13:20:46.601Z,16.90
2023-05-23T13:23:14.079Z,16.60
2023-05-23T13:25:41.477Z,16.60
2023-05-23T13:28:08.625Z,16.70
2023-05-23T13:30:35.622Z,16.40
2023-05-23T13:33:02.932Z,16.20
2023-05-23T13:35:29.882Z,16.10
2023-05-23T13:37:56.861Z,16.10
2023-05-23T13:40:23.902Z,16.10
2023-05-23T13:42:51.712Z,16.20
2023-05-23T13:45:20.244Z,16.20
2023-05-23T13:47:47.630Z,16.10
2023-05-23T13:50:14.979Z,16.00
2023-05-23T13:52:44.851Z,15.90
2023-05-23T13:55:13.549Z,15.70
2023-05-23T13:57:40.606Z,15.80
2023-05-23T14:00:09.592Z,16.10
2023-05-23T14:02:36.730Z,16.20
2023-05-23T14:05:04.185Z,16.00
2023-05-23T14:07:31.655Z,16.20
2023-05-23T14:09:59.897Z,16.50
2023-05-23T14:12:27.083Z,16.60
2023-05-23T14:14:54.029Z,16.80
2023-05-23T14:17:21.247Z,16.70
2023-05-23T14:19:48.484Z,16.70
2023-05-23T14:22:15.725Z,16.70
2023-05-23T14:24:42.722Z,16.90
2023-05-23T14:27:11.246Z,17.00
2023-05-23T14:29:39.088Z,17.20
2023-05-23T14:32:06.668Z,17.20
2023-05-23T14:34:33.911Z,17.10
2023-05-23T14:37:01.375Z,17.10
2023-05-23T14:39:29.340Z,17.00
2023-05-23T14:41:56.561Z,17.00
2023-05-23T14:44:23.878Z,17.00
2023-05-23T14:46:51.008Z,17.00
2023-05-23T14:49:18.048Z,17.00
2023-05-23T14:51:51.244Z,17.10
2023-05-23T14:54:19.435Z,17.00
2023-05-23T14:56:46.547Z,17.30
2023-05-23T14:59:13.678Z,17.60
2023-05-23T15:01:41.051Z,18.00
2023-05-23T15:04:09.882Z,18.50
2023-05-23T15:06:38.458Z,18.90
2023-05-23T15:09:05.819Z,19.10
2023-05-23T15:11:34.963Z,19.10
2023-05-23T15:14:02.211Z,19.10
2023-05-23T15:16:33.207Z,19.10
2023-05-23T15:19:00.524Z,19.20
2023-05-23T15:21:27.622Z,19.30
2023-05-23T15:23:55.412Z,19.50
2023-05-23T15:26:22.641Z,19.50
2023-05-23T15:28:49.808Z,19.40
2023-05-23T15:31:16.857Z,19.20
2023-05-23T15:33:43.793Z,19.00
2023-05-23T15:36:13.171Z,18.80
2023-05-23T15:38:40.541Z,18.70
2023-05-23T15:41:07.519Z,18.60
2023-05-23T15:43:37.969Z,18.70
2023-05-23T15:46:05.637Z,18.70
2023-05-23T15:48:32.738Z,18.80
2023-05-23T15:50:59.664Z,18.90
2023-05-23T15:53:26.631Z,19.00
2023-05-23T15:55:53.703Z,19.20
2023-05-23T15:58:20.855Z,19.60
2023-05-23T16:00:47.770Z,20.00
2023-05-23T16:03:14.716Z,20.20
2023-05-23T16:05:44.706Z,19.80
2023-05-23T16:08:11.799Z,19.50
2023-05-23T16:10:38.761Z,19.90
2023-05-23T16:13:05.914Z,20.10
2023-05-23T16:15:32.791Z,20.10
2023-05-23T16:18:00.122Z,20.00
2023-05-23T16:20:27.235Z,19.90
2023-05-23T16:22:54.164Z,19.60
2023-05-23T16:25:21.112Z,19.30
2023-05-23T16:27:48.053Z,19.30
2023-05-23T16:30:15.709Z,19.30
2023-05-23T16:32:42.687Z,19.20
2023-05-23T16:35:11.201Z,19.20
2023-05-23T16:37:38.823Z,19.20
2023-05-23T16:40:06.467Z,19.00
2023-05-23T16:42:33.403Z,18.90
2023-05-23T16:45:00.502Z,18.50
2023-05-23T16:47:27.430Z,18.60
2023-05-23T16:49:54.421Z,18.60
2023-05-23T16:52:21.373Z,18.60
2023-05-23T16:54:48.456Z,18.50
2023-05-23T16:57:15.775Z,18.50
2023-05-23T16:59:42.729Z,18.30
2023-05-23T17:02:13.849Z,18.40
2023-05-23T17:04:41.066Z,18.30
2023-05-23T17:07:09.471Z,18.30
2023-05-23T17:09:37.059Z,18.30
2023-05-23T17:12:04.276Z,18.20
2023-05-23T17:14:31.181Z,18.00
2023-05-23T17:16:58.257Z,17.90
2023-05-23T17:19:25.867Z,17.80
2023-05-23T17:21:52.888Z,17.80
2023-05-23T17:24:19.812Z,17.70
2023-05-23T17:26:46.855Z,17.70
2023-05-23T17:29:13.748Z,17.60
2023-05-23T17:31:40.958Z,17.50
2023-05-23T17:34:08.074Z,17.20
2023-05-23T17:36:35.181Z,17.30
2023-05-23T17:39:02.063Z,17.20
2023-05-23T17:41:29.000Z,17.20
2023-05-23T17:43:55.868Z,17.20
2023-05-23T17:46:22.832Z,17.20
2023-05-23T17:48:49.847Z,17.20
2023-05-23T17:51:16.922Z,17.30
2023-05-23T17:53:43.852Z,17.50
2023-05-23T17:56:11.052Z,17.60
2023-05-23T17:58:39.703Z,17.60
2023-05-23T18:01:08.576Z,17.60
2023-05-23T18:03:35.618Z,17.80
2023-05-23T18:06:02.630Z,17.80
2023-05-23T18:08:29.518Z,17.80
2023-05-23T18:10:56.674Z,17.90
2023-05-23T18:13:23.610Z,17.90
2023-05-23T18:15:50.498Z,17.70
2023-05-23T18:18:18.291Z,17.80
2023-05-23T18:20:45.645Z,17.80
2023-05-23T18:23:12.761Z,17.90
2023-05-23T18:25:39.703Z,17.80
2023-05-23T18:28:06.617Z,17.90
2023-05-23T18:30:33.731Z,17.80
2023-05-23T18:33:01.117Z,17.70
2023-05-23T18:35:28.301Z,17.50
2023-05-23T18:37:55.334Z,17.30
2023-05-23T18:40:24.342Z,17.30
2023-05-23T18:42:52.083Z,17.30
2023-05-23T18:45:19.172Z,17.10
2023-05-23T18:47:46.421Z,17.10
2023-05-23T18:50:14.373Z,17.00
2023-05-23T18:52:43.126Z,17.10
2023-05-23T18:55:11.348Z,17.10
2023-05-23T18:57:38.362Z,17.10
2023-05-23T19:00:07.461Z,17.10
2023-05-23T19:02:34.893Z,17.00
2023-05-23T19:05:02.429Z,16.90
2023-05-23T19:07:29.324Z,16.70
2023-05-23T19:09:56.634Z,16.70
2023-05-23T19:12:23.600Z,16.70
2023-05-23T19:14:50.479Z,16.70
2023-05-23T19:17:17.594Z,16.70
2023-05-23T19:19:44.595Z,16.60
2023-05-23T19:22:12.183Z,16.60
2023-05-23T19:24:39.094Z,16.60
2023-05-23T19:27:06.317Z,16.50
2023-05-23T19:29:33.243Z,16.50
2023-05-23T19:32:00.267Z,16.50
2023-05-23T19:34:27.424Z,16.50
2023-05-23T19:36:54.354Z,16.50
2023-05-23T19:39:21.673Z,16.50
2023-05-23T19:41:48.604Z,16.60
2023-05-23T19:44:15.522Z,16.50
2023-05-23T19:46:42.407Z,16.50
2023-05-23T19:49:09.361Z,16.40
2023-05-23T19:51:36.939Z,16.40
2023-05-23T19:54:04.006Z,16.30
2023-05-23T19:56:31.034Z,16.20
2023-05-23T19:58:57.983Z,16.20
2023-05-23T20:01:24.990Z,16.10
2023-05-23T20:03:52.443Z,16.10
2023-05-23T20:06:20.717Z,16.10
2023-05-23T20:08:47.852Z,16.10
2023-05-23T20:11:14.828Z,16.00
2023-05-23T20:13:41.760Z,16.00
2023-05-23T20:16:08.706Z,15.90
2023-05-23T20:18:36.201Z,15.80
2023-05-23T20:21:05.221Z,15.80
2023-05-23T20:23:32.496Z,15.80
2023-05-23T20:26:00.355Z,15.80
2023-05-23T20:28:27.765Z,15.70
2023-05-23T20:30:54.753Z,15.70
2023-05-23T20:33:22.016Z,15.60
2023-05-23T20:35:49.039Z,15.60
2023-05-23T20:38:18.627Z,15.70
2023-05-23T20:40:46.429Z,15.60
2023-05-23T20:43:15.142Z,15.60
2023-05-23T20:45:42.401Z,15.60
2023-05-23T20:48:09.460Z,15.60
2023-05-23T20:50:36.727Z,15.60
2023-05-23T20:53:03.773Z,15.60
2023-05-23T20:55:30.764Z,15.50
2023-05-23T20:57:57.692Z,15.30
2023-05-23T21:00:24.645Z,15.20
2023-05-23T21:02:51.703Z,15.10
2023-05-23T21:05:18.878Z,15.00
2023-05-23T21:08:06.183Z,15.00
2023-05-23T21:10:33.350Z,15.00
2023-05-23T21:13:00.599Z,15.00
2023-05-23T21:15:27.656Z,15.00
2023-05-23T21:17:55.082Z,14.90
2023-05-23T21:20:22.320Z,14.90
2023-05-23T21:22:49.732Z,14.80
2023-05-23T21:25:17.137Z,14.70
2023-05-23T21:27:44.196Z,14.60
2023-05-23T21:30:11.808Z,14.60
2023-05-23T21:32:38.767Z,14.50
2023-05-23T21:35:06.520Z,14.40
2023-05-23T21:37:33.438Z,14.30
2023-05-23T21:40:00.419Z,14.40
2023-05-23T21:42:27.757Z,14.30
2023-05-23T21:44:54.936Z,14.40
2023-05-23T21:47:25.316Z,14.30
2023-05-23T21:49:52.414Z,14.30
2023-05-23T21:52:19.656Z,14.20
2023-05-23T21:54:49.456Z,14.20
2023-05-23T21:57:16.727Z,14.20
2023-05-23T21:59:43.802Z,14.10
2023-05-23T22:02:11.540Z,14.00
2023-05-23T22:04:38.589Z,13.80
2023-05-23T22:07:05.672Z,13.80
2023-05-23T22:09:32.777Z,13.70
2023-05-23T22:11:59.797Z,13.70
2023-05-23T22:14:26.844Z,13.70
2023-05-23T22:16:54.539Z,13.70
2023-05-23T22:19:26.333Z,13.70
2023-05-23T22:21:53.415Z,13.60
2023-05-23T22:24:20.423Z,13.50
2023-05-23T22:26:48.019Z,13.50
2023-05-23T22:29:17.267Z,13.50
2023-05-23T22:31:44.515Z,13.40
2023-05-23T22:34:11.682Z,13.40
2023-05-23T22:36:39.111Z,13.30
2023-05-23T22:39:06.239Z,13.10
2023-05-23T22:41:33.380Z,13.10
2023-05-23T22:44:00.345Z,13.00
2023-05-23T22:46:27.382Z,12.90
2023-05-23T22:48:55.363Z,12.90
2023-05-23T22:51:22.457Z,12.90
2023-05-23T22:53:49.430Z,12.80
2023-05-23T22:56:16.966Z,12.80
2023-05-23T22:58:44.167Z,12.80
2023-05-23T23:01:11.136Z,12.80
2023-05-23T23:03:38.214Z,12.80
2023-05-23T23:06:09.555Z,12.80
2023-05-23T23:08:37.760Z,12.80
2023-05-23T23:11:04.933Z,12.80
2023-05-23T23:13:31.962Z,12.70
2023-05-23T23:15:58.937Z,12.60
2023-05-23T23:18:27.088Z,12.60
2023-05-23T23:20:57.093Z,12.50
2023-05-23T23:23:24.131Z,12.50
2023-05-23T23:25:52.388Z,12.50
2023-05-23T23:28:19.883Z,12.40
2023-05-23T23:30:47.178Z,12.30
2023-05-23T23:33:14.753Z,12.30
2023-05-23T23:35:45.427Z,12.20
2023-05-23T23:38:12.555Z,12.20
2023-05-23T23:40:39.705Z,12.10
2023-05-23T23:43:06.645Z,12.10
2023-05-23T23:45:33.610Z,12.00
2023-05-23T23:48:00.600Z,12.00
2023-05-23T23:50:27.692Z,12.00
2023-05-23T23:52:54.592Z,11.90
2023-05-23T23:55:21.722Z,11.90
2023-05-23T23:57:48.687Z,11.90
